sensor_id;sensor_type;location;lat;lon;timestamp;temperature;humidity
6758;DHT22;3416;53.074;8.822;2023-05-21T00:02:08;15.20;99.90
6758;DHT22;3416;53.074;8.822;2023-05-21T00:04:37;15.10;99.90
6758;DHT22;3416;53.074;8.822;2023-05-21T00:07:05;15.10;99.90
6758;DHT22;3416;53.074;8.822;2023-05-21T00:09:34;15.10;99.90
6758;DHT22;3416;53.074;8.822;2023-05-21T00:12:04;15.00;99.90
6758;DHT22;3416;53.074;8.822;2023-05-21T00:14:31;15.00;99.90
6758;DHT22;3416;53.074;8.822;2023-05-21T00:16:58;15.00;99.90
6758;DHT22;3416;53.074;8.822;2023-05-21T00:19:25;15.00;99.90
6758;DHT22;3416;53.074;8.822;2023-05-21T00:21:52;14.90;99.90
6758;DHT22;3416;53.074;8.822;2023-05-21T00:24:20;14.90;99.90
6758;DHT22;3416;53.074;8.822;2023-05-21T00:26:48;14.90;99.90
6758;DHT22;3416;53.074;8.822;2023-05-21T00:29:15;14.80;99.90
6758;DHT22;3416;53.074;8.822;2023-05-21T00:31:42;14.90;99.90
6758;DHT22;3416;53.074;8.822;2023-05-21T00:34:09;14.80;99.90
6758;DHT22;3416;53.074;8.822;2023-05-21T00:36:36;14.80;99.90
6758;DHT22;3416;53.074;8.822;2023-05-21T00:39:05;14.80;99.90
6758;DHT22;3416;53.074;8.822;2023-05-21T00:41:33;14.80;99.90
6758;DHT22;3416;53.074;8.822;2023-05-21T00:44:02;14.80;99.90
6758;DHT22;3416;53.074;8.822;2023-05-21T00:46:29;14.80;99.90
6758;DHT22;3416;53.074;8.822;2023-05-21T00:48:56;14.80;99.90
6758;DHT22;3416;53.074;8.822;2023-05-21T00:51:23;14.80;99.90
6758;DHT22;3416;53.074;8.822;2023-05-21T00:53:55;14.80;99.90
6758;DHT22;3416;53.074;8.822;2023-05-21T00:56:23;14.80;99.90
6758;DHT22;3416;53.074;8.822;2023-05-21T00:58:52;14.70;99.90
6758;DHT22;3416;53.074;8.822;2023-05-21T01:01:21;14.70;99.90
6758;DHT22;3416;53.074;8.822;2023-05-21T01:03:50;14.70;99.90
6758;DHT22;3416;53.074;8.822;2023-05-21T01:06:19;14.70;99.90
6758;DHT22;3416;53.074;8.822;2023-05-21T01:08:46;14.70;99.90
6758;DHT22;3416;53.074;8.822;2023-05-21T01:11:16;14.70;99.90
6758;DHT22;3416;53.074;8.822;2023-05-21T01:13:45;14.70;99.90
6758;DHT22;3416;53.074;8.822;2023-05-21T01:16:13;14.70;99.90
6758;DHT22;3416;53.074;8.822;2023-05-21T01:18:43;14.70;99.90
6758;DHT22;3416;53.074;8.822;2023-05-21T01:21:11;14.60;99.90
6758;DHT22;3416;53.074;8.822;2023-05-21T01:23:43;14.50;99.90
6758;DHT22;3416;53.074;8.822;2023-05-21T01:26:10;14.50;99.90
6758;DHT22;3416;53.074;8.822;2023-05-21T01:28:37;14.50;99.90
6758;DHT22;3416;53.074;8.822;2023-05-21T01:31:23;14.50;99.90
6758;DHT22;3416;53.074;8.822;2023-05-21T01:33:53;14.40;99.90
6758;DHT22;3416;53.074;8.822;2023-05-21T01:36:24;14.30;99.90
6758;DHT22;3416;53.074;8.822;2023-05-21T01:39:05;14.30;99.90
6758;DHT22;3416;53.074;8.822;2023-05-21T01:41:37;14.30;99.90
6758;DHT22;3416;53.074;8.822;2023-05-21T01:44:08;14.20;99.90
6758;DHT22;3416;53.074;8.822;2023-05-21T01:46:36;14.20;99.90
6758;DHT22;3416;53.074;8.822;2023-05-21T01:49:06;14.20;99.90
6758;DHT22;3416;53.074;8.822;2023-05-21T01:51:33;14.20;99.90
6758;DHT22;3416;53.074;8.822;2023-05-21T01:54:03;14.20;99.90
6758;DHT22;3416;53.074;8.822;2023-05-21T01:56:30;14.20;99.90
6758;DHT22;3416;53.074;8.822;2023-05-21T01:58:58;14.20;99.90
6758;DHT22;3416;53.074;8.822;2023-05-21T02:01:26;14.30;99.90
6758;DHT22;3416;53.074;8.822;2023-05-21T02:03:54;14.20;99.90
6758;DHT22;3416;53.074;8.822;2023-05-21T02:06:21;14.30;99.90
6758;DHT22;3416;53.074;8.822;2023-05-21T02:08:48;14.20;99.90
6758;DHT22;3416;53.074;8.822;2023-05-21T02:11:17;14.20;99.90
6758;DHT22;3416;53.074;8.822;2023-05-21T02:13:44;14.20;99.90
6758;DHT22;3416;53.074;8.822;2023-05-21T02:16:11;14.20;99.90
6758;DHT22;3416;53.074;8.822;2023-05-21T02:18:44;14.10;99.90
6758;DHT22;3416;53.074;8.822;2023-05-21T02:21:12;14.00;99.90
6758;DHT22;3416;53.074;8.822;2023-05-21T02:23:39;14.00;99.90
6758;DHT22;3416;53.074;8.822;2023-05-21T02:26:07;13.90;99.90
6758;DHT22;3416;53.074;8.822;2023-05-21T02:28:37;13.90;99.90
6758;DHT22;3416;53.074;8.822;2023-05-21T02:31:04;13.90;99.90
6758;DHT22;3416;53.074;8.822;2023-05-21T02:33:31;13.90;99.90
6758;DHT22;3416;53.074;8.822;2023-05-21T02:35:58;14.00;99.90
6758;DHT22;3416;53.074;8.822;2023-05-21T02:38:58;14.00;99.90
6758;DHT22;3416;53.074;8.822;2023-05-21T02:41:38;13.90;99.90
6758;DHT22;3416;53.074;8.822;2023-05-21T02:44:06;13.90;99.90
6758;DHT22;3416;53.074;8.822;2023-05-21T02:46:35;13.90;99.90
6758;DHT22;3416;53.074;8.822;2023-05-21T02:49:02;14.10;99.90
6758;DHT22;3416;53.074;8.822;2023-05-21T02:51:29;14.00;99.90
6758;DHT22;3416;53.074;8.822;2023-05-21T02:53:56;14.00;99.90
6758;DHT22;3416;53.074;8.822;2023-05-21T02:56:24;14.10;99.90
6758;DHT22;3416;53.074;8.822;2023-05-21T02:58:51;13.90;99.90
6758;DHT22;3416;53.074;8.822;2023-05-21T03:01:20;13.80;99.90
6758;DHT22;3416;53.074;8.822;2023-05-21T03:03:47;13.60;99.90
6758;DHT22;3416;53.074;8.822;2023-05-21T03:06:16;13.60;99.90
6758;DHT22;3416;53.074;8.822;2023-05-21T03:08:43;13.60;99.90
6758;DHT22;3416;53.074;8.822;2023-05-21T03:11:11;13.60;99.90
6758;DHT22;3416;53.074;8.822;2023-05-21T03:13:38;13.50;99.90
6758;DHT22;3416;53.074;8.822;2023-05-21T03:16:07;13.60;99.90
6758;DHT22;3416;53.074;8.822;2023-05-21T03:18:35;13.50;99.90
6758;DHT22;3416;53.074;8.822;2023-05-21T03:21:02;13.50;99.90
6758;DHT22;3416;53.074;8.822;2023-05-21T03:23:30;13.50;99.90
6758;DHT22;3416;53.074;8.822;2023-05-21T03:25:57;13.40;99.90
6758;DHT22;3416;53.074;8.822;2023-05-21T03:28:24;13.40;99.90
6758;DHT22;3416;53.074;8.822;2023-05-21T03:30:51;13.30;99.90
6758;DHT22;3416;53.074;8.822;2023-05-21T03:33:19;13.40;99.90
6758;DHT22;3416;53.074;8.822;2023-05-21T03:35:47;13.40;99.90
6758;DHT22;3416;53.074;8.822;2023-05-21T03:38:14;13.40;99.90
6758;DHT22;3416;53.074;8.822;2023-05-21T03:40:41;13.50;99.90
6758;DHT22;3416;53.074;8.822;2023-05-21T03:43:08;13.50;99.90
6758;DHT22;3416;53.074;8.822;2023-05-21T03:45:35;13.50;99.90
6758;DHT22;3416;53.074;8.822;2023-05-21T03:48:03;13.50;99.90
6758;DHT22;3416;53.074;8.822;2023-05-21T03:50:30;13.50;99.90
6758;DHT22;3416;53.074;8.822;2023-05-21T03:52:58;13.60;99.90
6758;DHT22;3416;53.074;8.822;2023-05-21T03:55:26;13.60;99.90
6758;DHT22;3416;53.074;8.822;2023-05-21T03:57:54;13.70;99.90
6758;DHT22;3416;53.074;8.822;2023-05-21T04:00:20;13.70;99.90
6758;DHT22;3416;53.074;8.822;2023-05-21T04:02:48;13.80;99.90
6758;DHT22;3416;53.074;8.822;2023-05-21T04:05:15;13.80;99.90
6758;DHT22;3416;53.074;8.822;2023-05-21T04:07:42;14.00;99.90
6758;DHT22;3416;53.074;8.822;2023-05-21T04:10:12;14.00;99.90
6758;DHT22;3416;53.074;8.822;2023-05-21T04:12:39;14.10;99.90
6758;DHT22;3416;53.074;8.822;2023-05-21T04:15:07;14.10;99.90
6758;DHT22;3416;53.074;8.822;2023-05-21T04:17:34;14.20;99.90
6758;DHT22;3416;53.074;8.822;2023-05-21T04:20:01;14.20;99.90
6758;DHT22;3416;53.074;8.822;2023-05-21T04:22:28;14.20;99.90
6758;DHT22;3416;53.074;8.822;2023-05-21T04:24:55;14.30;99.90
6758;DHT22;3416;53.074;8.822;2023-05-21T04:27:25;14.30;99.90
6758;DHT22;3416;53.074;8.822;2023-05-21T04:29:52;14.30;99.90
6758;DHT22;3416;53.074;8.822;2023-05-21T04:32:22;14.30;99.90
6758;DHT22;3416;53.074;8.822;2023-05-21T04:34:49;14.30;99.90
6758;DHT22;3416;53.074;8.822;2023-05-21T04:37:16;14.30;99.90
6758;DHT22;3416;53.074;8.822;2023-05-21T04:39:43;14.30;99.90
6758;DHT22;3416;53.074;8.822;2023-05-21T04:42:11;14.40;99.90
6758;DHT22;3416;53.074;8.822;2023-05-21T04:44:40;14.70;99.90
6758;DHT22;3416;53.074;8.822;2023-05-21T04:47:09;14.90;99.90
6758;DHT22;3416;53.074;8.822;2023-05-21T04:49:37;15.10;99.90
6758;DHT22;3416;53.074;8.822;2023-05-21T04:52:04;15.10;99.90
6758;DHT22;3416;53.074;8.822;2023-05-21T04:54:31;15.20;99.90
6758;DHT22;3416;53.074;8.822;2023-05-21T04:56:58;15.30;99.90
6758;DHT22;3416;53.074;8.822;2023-05-21T04:59:24;15.20;99.90
6758;DHT22;3416;53.074;8.822;2023-05-21T05:01:53;15.30;99.90
6758;DHT22;3416;53.074;8.822;2023-05-21T05:04:20;15.30;99.90
6758;DHT22;3416;53.074;8.822;2023-05-21T05:06:47;15.30;99.90
6758;DHT22;3416;53.074;8.822;2023-05-21T05:09:14;15.30;99.90
6758;DHT22;3416;53.074;8.822;2023-05-21T05:11:42;15.40;99.90
6758;DHT22;3416;53.074;8.822;2023-05-21T05:14:09;15.30;99.90
6758;DHT22;3416;53.074;8.822;2023-05-21T05:16:36;15.20;99.90
6758;DHT22;3416;53.074;8.822;2023-05-21T05:19:05;15.20;99.90
6758;DHT22;3416;53.074;8.822;2023-05-21T05:21:32;15.30;99.90
6758;DHT22;3416;53.074;8.822;2023-05-21T05:23:59;15.50;99.90
6758;DHT22;3416;53.074;8.822;2023-05-21T05:26:27;15.70;99.90
6758;DHT22;3416;53.074;8.822;2023-05-21T05:28:54;15.80;99.90
6758;DHT22;3416;53.074;8.822;2023-05-21T05:31:20;16.00;99.90
6758;DHT22;3416;53.074;8.822;2023-05-21T05:33:48;16.10;99.90
6758;DHT22;3416;53.074;8.822;2023-05-21T05:36:16;16.20;99.90
6758;DHT22;3416;53.074;8.822;2023-05-21T05:38:43;16.30;99.90
6758;DHT22;3416;53.074;8.822;2023-05-21T05:41:10;16.40;99.90
6758;DHT22;3416;53.074;8.822;2023-05-21T05:43:37;16.40;99.90
6758;DHT22;3416;53.074;8.822;2023-05-21T05:46:04;16.40;99.90
6758;DHT22;3416;53.074;8.822;2023-05-21T05:48:31;16.30;99.90
6758;DHT22;3416;53.074;8.822;2023-05-21T05:50:58;16.20;99.90
6758;DHT22;3416;53.074;8.822;2023-05-21T05:53:27;16.10;99.90
6758;DHT22;3416;53.074;8.822;2023-05-21T05:55:54;16.10;99.90
6758;DHT22;3416;53.074;8.822;2023-05-21T05:58:20;16.10;99.90
6758;DHT22;3416;53.074;8.822;2023-05-21T06:00:47;16.20;99.90
6758;DHT22;3416;53.074;8.822;2023-05-21T06:03:14;16.20;99.90
6758;DHT22;3416;53.074;8.822;2023-05-21T06:05:42;16.30;99.90
6758;DHT22;3416;53.074;8.822;2023-05-21T06:08:09;16.30;99.90
6758;DHT22;3416;53.074;8.822;2023-05-21T06:10:38;16.30;99.90
6758;DHT22;3416;53.074;8.822;2023-05-21T06:13:04;16.40;99.90
6758;DHT22;3416;53.074;8.822;2023-05-21T06:15:32;16.60;99.90
6758;DHT22;3416;53.074;8.822;2023-05-21T06:17:59;16.90;99.90
6758;DHT22;3416;53.074;8.822;2023-05-21T06:20:26;17.10;99.90
6758;DHT22;3416;53.074;8.822;2023-05-21T06:22:54;17.20;99.90
6758;DHT22;3416;53.074;8.822;2023-05-21T06:25:21;17.40;99.90
6758;DHT22;3416;53.074;8.822;2023-05-21T06:27:51;17.50;99.90
6758;DHT22;3416;53.074;8.822;2023-05-21T06:30:19;17.80;99.90
6758;DHT22;3416;53.074;8.822;2023-05-21T06:32:46;18.00;99.90
6758;DHT22;3416;53.074;8.822;2023-05-21T06:35:13;18.10;99.90
6758;DHT22;3416;53.074;8.822;2023-05-21T06:37:40;18.20;99.90
6758;DHT22;3416;53.074;8.822;2023-05-21T06:40:09;18.40;99.90
6758;DHT22;3416;53.074;8.822;2023-05-21T06:42:36;18.60;99.90
6758;DHT22;3416;53.074;8.822;2023-05-21T06:45:05;18.80;99.90
6758;DHT22;3416;53.074;8.822;2023-05-21T06:47:32;18.90;99.90
6758;DHT22;3416;53.074;8.822;2023-05-21T06:49:59;19.10;99.90
6758;DHT22;3416;53.074;8.822;2023-05-21T06:52:25;19.40;99.90
6758;DHT22;3416;53.074;8.822;2023-05-21T06:54:52;19.50;99.90
6758;DHT22;3416;53.074;8.822;2023-05-21T06:57:19;19.70;99.90
6758;DHT22;3416;53.074;8.822;2023-05-21T06:59:46;19.90;99.90
6758;DHT22;3416;53.074;8.822;2023-05-21T07:02:14;20.10;99.90
6758;DHT22;3416;53.074;8.822;2023-05-21T07:04:41;20.40;99.90
6758;DHT22;3416;53.074;8.822;2023-05-21T07:07:08;20.60;99.90
6758;DHT22;3416;53.074;8.822;2023-05-21T07:09:35;20.90;99.90
6758;DHT22;3416;53.074;8.822;2023-05-21T07:12:02;20.90;99.90
6758;DHT22;3416;53.074;8.822;2023-05-21T07:14:29;20.90;99.90
6758;DHT22;3416;53.074;8.822;2023-05-21T07:16:56;20.90;99.90
6758;DHT22;3416;53.074;8.822;2023-05-21T07:19:24;20.70;99.90
6758;DHT22;3416;53.074;8.822;2023-05-21T07:21:51;20.70;99.90
6758;DHT22;3416;53.074;8.822;2023-05-21T07:24:18;20.60;99.90
6758;DHT22;3416;53.074;8.822;2023-05-21T07:26:46;20.60;99.90
6758;DHT22;3416;53.074;8.822;2023-05-21T07:29:13;20.40;99.90
6758;DHT22;3416;53.074;8.822;2023-05-21T07:31:40;20.40;99.90
6758;DHT22;3416;53.074;8.822;2023-05-21T07:34:07;20.40;99.90
6758;DHT22;3416;53.074;8.822;2023-05-21T07:36:35;20.30;99.90
6758;DHT22;3416;53.074;8.822;2023-05-21T07:39:03;20.30;99.90
6758;DHT22;3416;53.074;8.822;2023-05-21T07:41:30;20.30;99.90
6758;DHT22;3416;53.074;8.822;2023-05-21T07:43:57;20.40;99.90
6758;DHT22;3416;53.074;8.822;2023-05-21T07:46:26;20.30;99.90
6758;DHT22;3416;53.074;8.822;2023-05-21T07:48:53;20.30;99.90
6758;DHT22;3416;53.074;8.822;2023-05-21T07:51:20;20.30;99.90
6758;DHT22;3416;53.074;8.822;2023-05-21T07:53:49;20.30;99.90
6758;DHT22;3416;53.074;8.822;2023-05-21T07:56:16;20.40;99.90
6758;DHT22;3416;53.074;8.822;2023-05-21T07:58:43;20.40;99.90
6758;DHT22;3416;53.074;8.822;2023-05-21T08:01:11;20.40;99.90
6758;DHT22;3416;53.074;8.822;2023-05-21T08:03:38;20.40;99.90
6758;DHT22;3416;53.074;8.822;2023-05-21T08:06:05;20.30;99.90
6758;DHT22;3416;53.074;8.822;2023-05-21T08:08:32;20.30;99.90
6758;DHT22;3416;53.074;8.822;2023-05-21T08:11:00;20.30;99.90
6758;DHT22;3416;53.074;8.822;2023-05-21T08:13:27;20.50;99.90
6758;DHT22;3416;53.074;8.822;2023-05-21T08:15:54;20.70;99.90
6758;DHT22;3416;53.074;8.822;2023-05-21T08:18:21;20.90;99.90
6758;DHT22;3416;53.074;8.822;2023-05-21T08:20:49;20.90;99.90
6758;DHT22;3416;53.074;8.822;2023-05-21T08:23:16;21.10;99.90
6758;DHT22;3416;53.074;8.822;2023-05-21T08:25:43;21.20;99.90
6758;DHT22;3416;53.074;8.822;2023-05-21T08:28:11;21.30;99.90
6758;DHT22;3416;53.074;8.822;2023-05-21T08:30:38;21.50;99.90
6758;DHT22;3416;53.074;8.822;2023-05-21T08:33:06;21.90;99.90
6758;DHT22;3416;53.074;8.822;2023-05-21T08:35:32;22.20;99.30
6758;DHT22;3416;53.074;8.822;2023-05-21T08:37:59;22.60;98.20
6758;DHT22;3416;53.074;8.822;2023-05-21T08:40:26;22.80;97.80
6758;DHT22;3416;53.074;8.822;2023-05-21T08:42:53;23.00;96.60
6758;DHT22;3416;53.074;8.822;2023-05-21T08:45:22;22.70;96.30
6758;DHT22;3416;53.074;8.822;2023-05-21T08:47:54;22.80;96.90
6758;DHT22;3416;53.074;8.822;2023-05-21T08:50:24;22.80;96.50
6758;DHT22;3416;53.074;8.822;2023-05-21T08:52:52;22.80;96.90
6758;DHT22;3416;53.074;8.822;2023-05-21T08:55:20;23.00;96.90
6758;DHT22;3416;53.074;8.822;2023-05-21T08:57:48;23.00;96.20
6758;DHT22;3416;53.074;8.822;2023-05-21T09:00:16;23.30;96.60
6758;DHT22;3416;53.074;8.822;2023-05-21T09:02:46;23.60;96.50
6758;DHT22;3416;53.074;8.822;2023-05-21T09:05:14;24.10;95.20
6758;DHT22;3416;53.074;8.822;2023-05-21T09:07:45;24.30;94.50
6758;DHT22;3416;53.074;8.822;2023-05-21T09:10:15;24.60;94.50
6758;DHT22;3416;53.074;8.822;2023-05-21T09:12:44;24.90;93.70
6758;DHT22;3416;53.074;8.822;2023-05-21T09:15:14;25.10;92.90
6758;DHT22;3416;53.074;8.822;2023-05-21T09:17:41;25.20;92.80
6758;DHT22;3416;53.074;8.822;2023-05-21T09:20:11;25.00;92.70
6758;DHT22;3416;53.074;8.822;2023-05-21T09:22:40;25.30;92.70
6758;DHT22;3416;53.074;8.822;2023-05-21T09:25:08;25.40;92.20
6758;DHT22;3416;53.074;8.822;2023-05-21T09:27:35;25.30;92.00
6758;DHT22;3416;53.074;8.822;2023-05-21T09:30:04;25.20;92.10
6758;DHT22;3416;53.074;8.822;2023-05-21T09:32:32;25.00;92.30
6758;DHT22;3416;53.074;8.822;2023-05-21T09:35:06;25.10;92.50
6758;DHT22;3416;53.074;8.822;2023-05-21T09:37:37;25.20;92.30
6758;DHT22;3416;53.074;8.822;2023-05-21T09:40:15;25.30;92.40
6758;DHT22;3416;53.074;8.822;2023-05-21T09:42:44;25.40;91.90
6758;DHT22;3416;53.074;8.822;2023-05-21T09:45:12;25.40;92.10
6758;DHT22;3416;53.074;8.822;2023-05-21T09:47:46;25.80;92.20
6758;DHT22;3416;53.074;8.822;2023-05-21T09:50:17;26.10;91.40
6758;DHT22;3416;53.074;8.822;2023-05-21T09:52:46;26.30;91.00
6758;DHT22;3416;53.074;8.822;2023-05-21T09:55:16;26.60;90.80
6758;DHT22;3416;53.074;8.822;2023-05-21T09:57:43;26.60;90.50
6758;DHT22;3416;53.074;8.822;2023-05-21T10:00:17;26.60;90.70
6758;DHT22;3416;53.074;8.822;2023-05-21T10:02:45;26.90;90.00
6758;DHT22;3416;53.074;8.822;2023-05-21T10:05:14;26.90;90.10
6758;DHT22;3416;53.074;8.822;2023-05-21T10:07:41;26.90;90.50
6758;DHT22;3416;53.074;8.822;2023-05-21T10:10:13;26.70;90.20
6758;DHT22;3416;53.074;8.822;2023-05-21T10:12:43;26.70;90.40
6758;DHT22;3416;53.074;8.822;2023-05-21T10:15:13;26.40;90.40
6758;DHT22;3416;53.074;8.822;2023-05-21T10:17:41;26.30;90.70
6758;DHT22;3416;53.074;8.822;2023-05-21T10:20:10;26.30;91.00
6758;DHT22;3416;53.074;8.822;2023-05-21T10:22:37;26.20;91.00
6758;DHT22;3416;53.074;8.822;2023-05-21T10:25:06;26.00;91.10
6758;DHT22;3416;53.074;8.822;2023-05-21T10:27:36;25.70;91.40
6758;DHT22;3416;53.074;8.822;2023-05-21T10:30:04;25.40;91.80
6758;DHT22;3416;53.074;8.822;2023-05-21T10:32:32;25.10;92.50
6758;DHT22;3416;53.074;8.822;2023-05-21T10:34:59;25.00;92.60
6758;DHT22;3416;53.074;8.822;2023-05-21T10:37:32;24.80;93.20
6758;DHT22;3416;53.074;8.822;2023-05-21T10:40:00;24.80;93.20
6758;DHT22;3416;53.074;8.822;2023-05-21T10:42:55;24.90;93.30
6758;DHT22;3416;53.074;8.822;2023-05-21T10:45:35;24.80;93.20
6758;DHT22;3416;53.074;8.822;2023-05-21T10:48:22;25.10;93.50
6758;DHT22;3416;53.074;8.822;2023-05-21T10:54:08;25.30;93.10
6758;DHT22;3416;53.074;8.822;2023-05-21T10:56:43;25.20;93.00
6758;DHT22;3416;53.074;8.822;2023-05-21T10:59:19;25.20;93.00
6758;DHT22;3416;53.074;8.822;2023-05-21T11:01:49;25.20;93.10
6758;DHT22;3416;53.074;8.822;2023-05-21T11:04:21;25.20;93.30
6758;DHT22;3416;53.074;8.822;2023-05-21T11:06:48;25.30;93.20
6758;DHT22;3416;53.074;8.822;2023-05-21T11:09:15;25.40;93.00
6758;DHT22;3416;53.074;8.822;2023-05-21T11:11:43;25.50;92.70
6758;DHT22;3416;53.074;8.822;2023-05-21T11:14:34;25.50;92.80
6758;DHT22;3416;53.074;8.822;2023-05-21T11:17:09;25.50;92.90
6758;DHT22;3416;53.074;8.822;2023-05-21T11:19:37;25.60;92.70
6758;DHT22;3416;53.074;8.822;2023-05-21T11:22:06;25.70;92.80
6758;DHT22;3416;53.074;8.822;2023-05-21T11:24:36;25.80;92.50
6758;DHT22;3416;53.074;8.822;2023-05-21T11:27:07;25.80;92.30
6758;DHT22;3416;53.074;8.822;2023-05-21T11:29:40;25.80;92.30
6758;DHT22;3416;53.074;8.822;2023-05-21T11:32:09;25.70;92.50
6758;DHT22;3416;53.074;8.822;2023-05-21T11:34:39;25.70;92.30
6758;DHT22;3416;53.074;8.822;2023-05-21T11:37:23;25.60;92.60
6758;DHT22;3416;53.074;8.822;2023-05-21T11:39:52;25.70;92.40
6758;DHT22;3416;53.074;8.822;2023-05-21T11:42:29;25.80;92.40
6758;DHT22;3416;53.074;8.822;2023-05-21T11:44:59;25.90;92.20
6758;DHT22;3416;53.074;8.822;2023-05-21T11:47:28;25.80;92.40
6758;DHT22;3416;53.074;8.822;2023-05-21T11:49:58;25.90;92.50
6758;DHT22;3416;53.074;8.822;2023-05-21T11:52:26;26.00;92.60
6758;DHT22;3416;53.074;8.822;2023-05-21T11:54:54;26.10;92.30
6758;DHT22;3416;53.074;8.822;2023-05-21T11:57:26;26.20;91.90
6758;DHT22;3416;53.074;8.822;2023-05-21T11:59:55;26.20;92.10
6758;DHT22;3416;53.074;8.822;2023-05-21T12:02:25;26.10;92.10
6758;DHT22;3416;53.074;8.822;2023-05-21T12:04:54;26.00;92.20
6758;DHT22;3416;53.074;8.822;2023-05-21T12:07:25;26.00;92.10
6758;DHT22;3416;53.074;8.822;2023-05-21T12:09:53;25.90;92.20
6758;DHT22;3416;53.074;8.822;2023-05-21T12:12:24;25.90;92.40
6758;DHT22;3416;53.074;8.822;2023-05-21T12:14:52;26.00;92.40
6758;DHT22;3416;53.074;8.822;2023-05-21T12:17:20;26.00;92.60
6758;DHT22;3416;53.074;8.822;2023-05-21T12:19:50;26.00;92.50
6758;DHT22;3416;53.074;8.822;2023-05-21T12:22:17;26.00;92.70
6758;DHT22;3416;53.074;8.822;2023-05-21T12:24:44;26.20;92.50
6758;DHT22;3416;53.074;8.822;2023-05-21T12:27:14;26.40;92.30
6758;DHT22;3416;53.074;8.822;2023-05-21T12:29:43;26.60;92.30
6758;DHT22;3416;53.074;8.822;2023-05-21T12:32:11;26.80;91.70
6758;DHT22;3416;53.074;8.822;2023-05-21T12:34:39;26.90;91.70
6758;DHT22;3416;53.074;8.822;2023-05-21T12:37:10;26.80;91.50
6758;DHT22;3416;53.074;8.822;2023-05-21T12:39:37;26.90;91.60
6758;DHT22;3416;53.074;8.822;2023-05-21T12:42:05;27.00;91.60
6758;DHT22;3416;53.074;8.822;2023-05-21T12:44:33;27.00;91.70
6758;DHT22;3416;53.074;8.822;2023-05-21T12:47:00;27.10;91.80
6758;DHT22;3416;53.074;8.822;2023-05-21T12:49:32;27.00;91.50
6758;DHT22;3416;53.074;8.822;2023-05-21T12:52:02;27.00;91.70
6758;DHT22;3416;53.074;8.822;2023-05-21T12:54:31;27.00;91.90
6758;DHT22;3416;53.074;8.822;2023-05-21T12:57:05;27.10;91.80
6758;DHT22;3416;53.074;8.822;2023-05-21T12:59:46;27.10;92.00
6758;DHT22;3416;53.074;8.822;2023-05-21T13:02:21;27.10;91.80
6758;DHT22;3416;53.074;8.822;2023-05-21T13:04:53;27.20;91.90
6758;DHT22;3416;53.074;8.822;2023-05-21T13:07:20;27.30;91.80
6758;DHT22;3416;53.074;8.822;2023-05-21T13:09:48;27.30;91.70
6758;DHT22;3416;53.074;8.822;2023-05-21T13:12:17;27.20;91.70
6758;DHT22;3416;53.074;8.822;2023-05-21T13:14:45;27.10;91.90
6758;DHT22;3416;53.074;8.822;2023-05-21T13:17:13;27.20;91.70
6758;DHT22;3416;53.074;8.822;2023-05-21T13:19:40;27.30;91.90
6758;DHT22;3416;53.074;8.822;2023-05-21T13:22:07;27.50;91.30
6758;DHT22;3416;53.074;8.822;2023-05-21T13:24:35;27.60;90.90
6758;DHT22;3416;53.074;8.822;2023-05-21T13:27:03;27.50;91.00
6758;DHT22;3416;53.074;8.822;2023-05-21T13:29:30;27.60;91.10
6758;DHT22;3416;53.074;8.822;2023-05-21T13:31:57;27.70;90.90
6758;DHT22;3416;53.074;8.822;2023-05-21T13:34:24;27.80;90.70
6758;DHT22;3416;53.074;8.822;2023-05-21T13:36:51;27.80;90.70
6758;DHT22;3416;53.074;8.822;2023-05-21T13:39:19;27.90;91.00
6758;DHT22;3416;53.074;8.822;2023-05-21T13:41:51;27.90;90.90
6758;DHT22;3416;53.074;8.822;2023-05-21T13:44:19;27.90;90.80
6758;DHT22;3416;53.074;8.822;2023-05-21T13:46:46;27.80;90.60
6758;DHT22;3416;53.074;8.822;2023-05-21T13:49:13;27.80;90.50
6758;DHT22;3416;53.074;8.822;2023-05-21T13:51:40;27.80;90.80
6758;DHT22;3416;53.074;8.822;2023-05-21T13:54:07;28.00;90.40
6758;DHT22;3416;53.074;8.822;2023-05-21T13:56:34;28.00;90.40
6758;DHT22;3416;53.074;8.822;2023-05-21T13:59:01;28.20;90.00
6758;DHT22;3416;53.074;8.822;2023-05-21T14:01:29;28.30;90.00
6758;DHT22;3416;53.074;8.822;2023-05-21T14:03:57;28.40;89.40
6758;DHT22;3416;53.074;8.822;2023-05-21T14:06:29;28.50;89.50
6758;DHT22;3416;53.074;8.822;2023-05-21T14:08:56;28.60;89.10
6758;DHT22;3416;53.074;8.822;2023-05-21T14:11:23;28.70;88.80
6758;DHT22;3416;53.074;8.822;2023-05-21T14:13:50;28.80;89.30
6758;DHT22;3416;53.074;8.822;2023-05-21T14:16:17;29.10;88.10
6758;DHT22;3416;53.074;8.822;2023-05-21T14:18:45;29.20;86.00
6758;DHT22;3416;53.074;8.822;2023-05-21T14:21:12;29.00;86.40
6758;DHT22;3416;53.074;8.822;2023-05-21T14:23:39;28.80;86.80
6758;DHT22;3416;53.074;8.822;2023-05-21T14:26:06;28.90;86.20
6758;DHT22;3416;53.074;8.822;2023-05-21T14:28:33;28.90;85.90
6758;DHT22;3416;53.074;8.822;2023-05-21T14:31:00;28.70;85.20
6758;DHT22;3416;53.074;8.822;2023-05-21T14:33:27;28.60;85.30
6758;DHT22;3416;53.074;8.822;2023-05-21T14:35:55;28.50;86.00
6758;DHT22;3416;53.074;8.822;2023-05-21T14:38:22;28.40;86.30
6758;DHT22;3416;53.074;8.822;2023-05-21T14:40:50;28.40;86.50
6758;DHT22;3416;53.074;8.822;2023-05-21T14:43:17;28.40;86.40
6758;DHT22;3416;53.074;8.822;2023-05-21T14:45:44;28.50;86.40
6758;DHT22;3416;53.074;8.822;2023-05-21T14:48:11;28.60;86.10
6758;DHT22;3416;53.074;8.822;2023-05-21T14:50:39;28.70;86.70
6758;DHT22;3416;53.074;8.822;2023-05-21T14:53:10;28.70;84.90
6758;DHT22;3416;53.074;8.822;2023-05-21T14:55:37;28.70;85.60
6758;DHT22;3416;53.074;8.822;2023-05-21T14:58:04;28.60;84.70
6758;DHT22;3416;53.074;8.822;2023-05-21T15:00:32;28.50;83.30
6758;DHT22;3416;53.074;8.822;2023-05-21T15:02:59;28.50;83.40
6758;DHT22;3416;53.074;8.822;2023-05-21T15:05:27;28.50;83.90
6758;DHT22;3416;53.074;8.822;2023-05-21T15:07:54;28.50;84.50
6758;DHT22;3416;53.074;8.822;2023-05-21T15:10:23;28.60;82.30
6758;DHT22;3416;53.074;8.822;2023-05-21T15:12:50;28.60;81.40
6758;DHT22;3416;53.074;8.822;2023-05-21T15:15:17;28.40;81.40
6758;DHT22;3416;53.074;8.822;2023-05-21T15:17:45;28.40;82.30
6758;DHT22;3416;53.074;8.822;2023-05-21T15:20:14;28.40;82.60
6758;DHT22;3416;53.074;8.822;2023-05-21T15:22:41;28.30;81.90
6758;DHT22;3416;53.074;8.822;2023-05-21T15:25:08;28.30;81.90
6758;DHT22;3416;53.074;8.822;2023-05-21T15:27:37;28.20;82.00
6758;DHT22;3416;53.074;8.822;2023-05-21T15:30:05;28.30;81.30
6758;DHT22;3416;53.074;8.822;2023-05-21T15:32:32;28.10;81.00
6758;DHT22;3416;53.074;8.822;2023-05-21T15:35:00;28.00;81.00
6758;DHT22;3416;53.074;8.822;2023-05-21T15:37:29;28.00;80.60
6758;DHT22;3416;53.074;8.822;2023-05-21T15:40:04;27.90;79.70
6758;DHT22;3416;53.074;8.822;2023-05-21T15:42:33;27.80;79.40
6758;DHT22;3416;53.074;8.822;2023-05-21T15:45:01;27.70;80.30
6758;DHT22;3416;53.074;8.822;2023-05-21T15:47:28;27.70;80.20
6758;DHT22;3416;53.074;8.822;2023-05-21T15:49:55;27.70;79.50
6758;DHT22;3416;53.074;8.822;2023-05-21T15:52:23;27.60;79.50
6758;DHT22;3416;53.074;8.822;2023-05-21T15:54:50;27.60;79.90
6758;DHT22;3416;53.074;8.822;2023-05-21T15:57:18;27.60;80.40
6758;DHT22;3416;53.074;8.822;2023-05-21T15:59:46;27.60;80.20
6758;DHT22;3416;53.074;8.822;2023-05-21T16:02:16;27.60;80.30
6758;DHT22;3416;53.074;8.822;2023-05-21T16:04:43;27.60;79.80
6758;DHT22;3416;53.074;8.822;2023-05-21T16:07:10;27.50;80.30
6758;DHT22;3416;53.074;8.822;2023-05-21T16:09:36;27.40;79.80
6758;DHT22;3416;53.074;8.822;2023-05-21T16:12:04;27.40;79.90
6758;DHT22;3416;53.074;8.822;2023-05-21T16:14:31;27.40;79.60